Impacts TAF Board
For situational awareness. Not to be used for flight planning purposes.
IDs:

KSLK - Saranac Lake/Adirond, NY, US

Issued at 0201 UTC 29 Nov 2020
Updated at 0225 UTC 29 Nov 2020
Potential Impact None Slight Moderate High
Time0200Z 29/03Z 29/04Z 29/05Z 29/06Z 29/07Z 29/08Z 29/09Z 29/10Z 29/11Z 29/12Z 29/13Z 29/14Z 29/15Z>>
Type OBS PRVL
  [TEMP]  
PRVL
  [TEMP]  
PRVL
  [TEMP]  
PRVL PRVL PRVL PRVL PRVL PRVL PRVL PRVL PRVL PRVL
VIS 10 >6 >6 >6 >6 >6 >6 >6 >6 >6 >6 >6 >6 >6
CIG 16 35
  [20]  
35
  [20]  
35
  [20]  
50 50 50 50 50 25 25 25 25 25
Cover OVC OVC
  [BKN]  
OVC
  [BKN]  
OVC
  [BKN]  
OVC OVC OVC OVC OVC OVC OVC OVC OVC OVC
FltCat MVFR VFR
  [MVFR]  
VFR
  [MVFR]  
VFR
  [MVFR]  
VFR VFR VFR VFR VFR MVFR MVFR MVFR MVFR MVFR
WX -- --
  [--]  
--
  [--]  
--
  [--]  
-- -- -- -- -- -- -- -- -- --
WDir 220 240
[240]
240
[240]
240
[240]
240 240 240 240 240 240 240 240 240 240
WSpd 9 5
  [5]  
5
  [5]  
5
  [5]  
5 5 5 5 5 6 6 6 6 6
WGst -- --
  [--]  
--
  [--]  
--
  [--]  
-- -- -- -- -- -- -- -- -- --
Raw TAF
KSLK 290201Z 2902/2924 24005KT P6SM SCT020 OVC035
  TEMPO 2902/2906 BKN020
  FM290600 24005KT P6SM SCT035 OVC050
  FM291100 24006KT P6SM OVC025
  FM291600 22009KT P6SM SCT035 SCT200


Raw METAR
KSLK 290200Z AUTO 22009KT 10SM BKN016 OVC020 02/M01 A2992 RMK AO2 T00171006
KSLK 290151Z AUTO 23006KT 10SM BKN014 OVC022 02/M01 A2992 RMK AO2 SLP148 T00171006
KSLK 290132Z AUTO 24006KT 10SM OVC014 01/M01 A2992 RMK AO2 T00111006
KSLK 290051Z AUTO 24008KT 10SM OVC017 01/M01 A2992 RMK AO2 SLP149 T00111011
KSLK 282351Z AUTO 24006KT 10SM BKN024 BKN029 OVC046 01/M02 A2993 RMK AO2 SLP151 60001 T00111017 10028 20011 53013
KSLK 282342Z AUTO 25008KT 10SM BKN026 OVC048 01/M02 A2993 RMK AO2 T00111017

METAR Board
Radar Display
Forecast Discussion
For situational awareness. Not to be used for flight planning purposes.